الصفحة الرئيسية
METAR-TAF:

METAR-TAF

مطار :

مطار سولت لايك سيتي الدولي

سولت ليك سيتي, يوتا, الولايات المتحدة

دائرة عرض: 40-46-41N, خط طول: 111-58-10W, ارتفاع: 1288 متر

مراقبة الطقس الحالي

تاريخ ووقت الإصدار 12ساعات و 34 دقيقة قبل الساعة 04:54UTC
ريح 13 عقدة من الجنوب الشرقي
درجة الحرارة 26°درجة مئوية
الرطوبة 34%
ضغط 1014 hPa
الرؤية: 16.1 كم
غيوم متفرقة على ارتفاع 12000 قدم
غيوم متفرقة على ارتفاع 20000 قدم

METAR: KSLC 210454Z 14013KT 10SM SCT120 SCT200 26/09 A2993

زمن: 11:28 (17:28 UTC)

توقعات

تاريخ ووقت الإصدار 12ساعات و 23 دقيقة قبل الساعة 05:05UTC
التوقعات صالحة من21 الساعة 05 UTC إلى 22 الساعة 06 UTC
ريح 8 عقدة من الجنوب/الجنوب الشرقي
الرؤية: 10 كم
غيوم متفرقة على ارتفاع 18000 قدم
من 21 الساعة 1800 UTC
ريح 8 عقدة من الغرب/الشمال الغربي
الرؤية: 10 كم
غيوم متفرقة على ارتفاع 8000 قدم
غيوم مفككة على ارتفاع 12000 قدم
من 22 الساعة 0300 UTC
ريح 9 عقدة من الجنوب
الرؤية: 10 كم
غيوم متفرقة على ارتفاع 7000 قدم
غيوم مفككة على ارتفاع 10000 قدم

TAF: KSLC 210505Z 2105/2206 16008KT P6SM SCT180 FM211800 30008KT P6SM SCT080 BKN120 FM220300 17009KT P6SM SCT070 BKN100

أرصاد الطقس والتوقعات من أكثر من 4000 مطار (تقارير الطقس للمطار METAR والتنبؤ بالطقس بالمطارTAF).

المحطات المتاحة هي النقط الصفراء والحمراء على الخريطة.

حرك المؤشر فوق النقطة لمعرفة اسم المحطة.

ثم انقر لمعرفة أرصاد وتوقعات الطقس.

لتغيير الخارطة: اضغط على الأزرار الخضراء مع رمز الصليب الأسود للتكبير. على الزر الأخضر مع شرطة للتصغير، أو على الأسهم الخضراء للخرائط المجاورة.


METAR-TAF: